sensor_id;sensor_type;location;lat;lon;timestamp;pressure;altitude;pressure_sealevel;temperature
65290;BMP180;51893;59.754;10.110;2023-06-04T00:01:13;102143.00;;;11.80
65290;BMP180;51893;59.754;10.110;2023-06-04T00:03:56;102141.60;;;11.80
65290;BMP180;51893;59.754;10.110;2023-06-04T00:06:25;102138.20;;;11.80
65290;BMP180;51893;59.754;10.110;2023-06-04T00:08:53;102138.40;;;11.80
65290;BMP180;51893;59.754;10.110;2023-06-04T00:11:23;102143.00;;;11.80
65290;BMP180;51893;59.754;10.110;2023-06-04T00:13:53;102147.20;;;11.70
65290;BMP180;51893;59.754;10.110;2023-06-04T00:16:21;102146.20;;;11.66
65290;BMP180;51893;59.754;10.110;2023-06-04T00:18:52;102141.60;;;11.60
65290;BMP180;51893;59.754;10.110;2023-06-04T00:21:22;102147.40;;;11.62
65290;BMP180;51893;59.754;10.110;2023-06-04T00:23:50;102148.20;;;11.60
65290;BMP180;51893;59.754;10.110;2023-06-04T00:26:19;102153.60;;;11.50
65290;BMP180;51893;59.754;10.110;2023-06-04T00:28:49;102151.60;;;11.50
65290;BMP180;51893;59.754;10.110;2023-06-04T00:31:17;102158.60;;;11.40
65290;BMP180;51893;59.754;10.110;2023-06-04T00:33:46;102155.20;;;11.32
65290;BMP180;51893;59.754;10.110;2023-06-04T00:36:15;102159.80;;;11.30
65290;BMP180;51893;59.754;10.110;2023-06-04T00:38:43;102159.20;;;11.20
65290;BMP180;51893;59.754;10.110;2023-06-04T00:41:11;102161.20;;;11.20
65290;BMP180;51893;59.754;10.110;2023-06-04T00:43:40;102162.40;;;11.10
65290;BMP180;51893;59.754;10.110;2023-06-04T00:46:13;102159.80;;;11.10
65290;BMP180;51893;59.754;10.110;2023-06-04T00:48:46;102165.60;;;11.10
65290;BMP180;51893;59.754;10.110;2023-06-04T00:51:14;102165.00;;;11.00
65290;BMP180;51893;59.754;10.110;2023-06-04T00:53:43;102160.20;;;11.00
65290;BMP180;51893;59.754;10.110;2023-06-04T00:56:12;102162.60;;;11.10
65290;BMP180;51893;59.754;10.110;2023-06-04T00:58:40;102163.80;;;11.10
65290;BMP180;51893;59.754;10.110;2023-06-04T01:01:45;102166.60;;;11.08
65290;BMP180;51893;59.754;10.110;2023-06-04T01:04:27;102173.20;;;11.00
65290;BMP180;51893;59.754;10.110;2023-06-04T01:06:57;102181.00;;;11.00
65290;BMP180;51893;59.754;10.110;2023-06-04T01:09:29;102184.00;;;11.00
65290;BMP180;51893;59.754;10.110;2023-06-04T01:12:04;102185.60;;;10.90
65290;BMP180;51893;59.754;10.110;2023-06-04T01:14:33;102183.20;;;10.90
65290;BMP180;51893;59.754;10.110;2023-06-04T01:17:22;102185.80;;;10.90
65290;BMP180;51893;59.754;10.110;2023-06-04T01:25:39;102191.00;;;10.70
65290;BMP180;51893;59.754;10.110;2023-06-04T01:28:11;102192.40;;;10.80
65290;BMP180;51893;59.754;10.110;2023-06-04T01:30:43;102196.40;;;10.80
65290;BMP180;51893;59.754;10.110;2023-06-04T01:33:19;102199.00;;;10.70
65290;BMP180;51893;59.754;10.110;2023-06-04T01:35:50;102199.40;;;10.60
65290;BMP180;51893;59.754;10.110;2023-06-04T01:38:19;102203.40;;;10.60
65290;BMP180;51893;59.754;10.110;2023-06-04T01:40:47;102196.00;;;10.54
65290;BMP180;51893;59.754;10.110;2023-06-04T01:43:18;102196.00;;;10.50
65290;BMP180;51893;59.754;10.110;2023-06-04T01:45:46;102197.20;;;10.50
65290;BMP180;51893;59.754;10.110;2023-06-04T01:48:15;102193.80;;;10.50
65290;BMP180;51893;59.754;10.110;2023-06-04T01:50:43;102194.60;;;10.42
65290;BMP180;51893;59.754;10.110;2023-06-04T01:53:11;102198.40;;;10.40
65290;BMP180;51893;59.754;10.110;2023-06-04T01:55:39;102194.80;;;10.30
65290;BMP180;51893;59.754;10.110;2023-06-04T01:58:07;102200.20;;;10.40
65290;BMP180;51893;59.754;10.110;2023-06-04T02:00:39;102202.00;;;10.40
65290;BMP180;51893;59.754;10.110;2023-06-04T02:03:09;102209.60;;;10.40
65290;BMP180;51893;59.754;10.110;2023-06-04T02:05:41;102209.40;;;10.30
65290;BMP180;51893;59.754;10.110;2023-06-04T02:08:16;102208.00;;;10.28
65290;BMP180;51893;59.754;10.110;2023-06-04T02:10:47;102207.60;;;10.20
65290;BMP180;51893;59.754;10.110;2023-06-04T02:13:16;102202.60;;;10.20
65290;BMP180;51893;59.754;10.110;2023-06-04T02:15:44;102211.80;;;10.20
65290;BMP180;51893;59.754;10.110;2023-06-04T02:18:15;102216.80;;;10.10
65290;BMP180;51893;59.754;10.110;2023-06-04T02:20:49;102224.00;;;10.10
65290;BMP180;51893;59.754;10.110;2023-06-04T02:23:19;102223.60;;;10.10
65290;BMP180;51893;59.754;10.110;2023-06-04T02:25:48;102232.60;;;10.10
65290;BMP180;51893;59.754;10.110;2023-06-04T02:28:18;102235.00;;;10.08
65290;BMP180;51893;59.754;10.110;2023-06-04T02:30:46;102241.20;;;10.00
65290;BMP180;51893;59.754;10.110;2023-06-04T02:33:15;102242.00;;;9.92
65290;BMP180;51893;59.754;10.110;2023-06-04T02:35:43;102247.00;;;9.90
65290;BMP180;51893;59.754;10.110;2023-06-04T02:38:12;102253.80;;;9.90
65290;BMP180;51893;59.754;10.110;2023-06-04T02:40:42;102250.40;;;9.90
65290;BMP180;51893;59.754;10.110;2023-06-04T02:43:12;102255.20;;;9.90
65290;BMP180;51893;59.754;10.110;2023-06-04T02:45:41;102252.40;;;9.90
65290;BMP180;51893;59.754;10.110;2023-06-04T02:48:09;102253.20;;;9.98
65290;BMP180;51893;59.754;10.110;2023-06-04T02:50:40;102253.60;;;9.94
65290;BMP180;51893;59.754;10.110;2023-06-04T02:53:11;102263.40;;;9.90
65290;BMP180;51893;59.754;10.110;2023-06-04T02:55:42;102257.20;;;9.80
65290;BMP180;51893;59.754;10.110;2023-06-04T02:58:10;102258.00;;;9.72
65290;BMP180;51893;59.754;10.110;2023-06-04T03:00:38;102265.00;;;9.80
65290;BMP180;51893;59.754;10.110;2023-06-04T03:03:06;102271.80;;;9.80
65290;BMP180;51893;59.754;10.110;2023-06-04T03:05:36;102268.00;;;9.70
65290;BMP180;51893;59.754;10.110;2023-06-04T03:08:04;102276.20;;;9.68
65290;BMP180;51893;59.754;10.110;2023-06-04T03:10:33;102281.00;;;9.60
65290;BMP180;51893;59.754;10.110;2023-06-04T03:13:01;102294.00;;;9.60
65290;BMP180;51893;59.754;10.110;2023-06-04T03:15:29;102292.80;;;9.50
65290;BMP180;51893;59.754;10.110;2023-06-04T03:17:58;102294.80;;;9.50
65290;BMP180;51893;59.754;10.110;2023-06-04T03:20:27;102296.80;;;9.50
65290;BMP180;51893;59.754;10.110;2023-06-04T03:22:55;102291.40;;;9.50
65290;BMP180;51893;59.754;10.110;2023-06-04T03:25:23;102297.60;;;9.50
65290;BMP180;51893;59.754;10.110;2023-06-04T03:27:51;102301.00;;;9.60
65290;BMP180;51893;59.754;10.110;2023-06-04T03:30:20;102300.00;;;9.50
65290;BMP180;51893;59.754;10.110;2023-06-04T03:32:48;102304.40;;;9.58
65290;BMP180;51893;59.754;10.110;2023-06-04T03:35:19;102306.40;;;9.60
65290;BMP180;51893;59.754;10.110;2023-06-04T03:37:47;102301.40;;;9.70
65290;BMP180;51893;59.754;10.110;2023-06-04T03:40:17;102296.60;;;9.70
65290;BMP180;51893;59.754;10.110;2023-06-04T03:42:45;102294.60;;;9.70
65290;BMP180;51893;59.754;10.110;2023-06-04T03:45:14;102299.20;;;9.80
65290;BMP180;51893;59.754;10.110;2023-06-04T03:47:42;102298.00;;;9.80
65290;BMP180;51893;59.754;10.110;2023-06-04T03:50:11;102298.80;;;9.82
65290;BMP180;51893;59.754;10.110;2023-06-04T03:52:39;102303.20;;;9.80
65290;BMP180;51893;59.754;10.110;2023-06-04T03:55:08;102300.80;;;9.96
65290;BMP180;51893;59.754;10.110;2023-06-04T03:57:37;102303.20;;;10.00
65290;BMP180;51893;59.754;10.110;2023-06-04T04:00:10;102302.00;;;10.00
65290;BMP180;51893;59.754;10.110;2023-06-04T04:02:42;102304.00;;;10.10
65290;BMP180;51893;59.754;10.110;2023-06-04T04:05:12;102299.60;;;10.16
65290;BMP180;51893;59.754;10.110;2023-06-04T04:07:43;102303.20;;;10.20
65290;BMP180;51893;59.754;10.110;2023-06-04T04:10:11;102303.00;;;10.30
65290;BMP180;51893;59.754;10.110;2023-06-04T04:12:41;102303.20;;;10.40
65290;BMP180;51893;59.754;10.110;2023-06-04T04:15:11;102307.00;;;10.50
65290;BMP180;51893;59.754;10.110;2023-06-04T04:17:39;102309.40;;;10.60
65290;BMP180;51893;59.754;10.110;2023-06-04T04:20:08;102314.00;;;10.60
65290;BMP180;51893;59.754;10.110;2023-06-04T04:22:40;102311.20;;;10.70
65290;BMP180;51893;59.754;10.110;2023-06-04T04:25:09;102310.20;;;10.72
65290;BMP180;51893;59.754;10.110;2023-06-04T04:27:37;102318.00;;;10.82
65290;BMP180;51893;59.754;10.110;2023-06-04T04:30:11;102322.00;;;10.96
65290;BMP180;51893;59.754;10.110;2023-06-04T04:32:41;102329.40;;;11.10
65290;BMP180;51893;59.754;10.110;2023-06-04T04:35:20;102324.60;;;11.10
65290;BMP180;51893;59.754;10.110;2023-06-04T04:37:51;102323.20;;;11.10
65290;BMP180;51893;59.754;10.110;2023-06-04T04:40:22;102326.60;;;11.10
65290;BMP180;51893;59.754;10.110;2023-06-04T04:42:58;102325.80;;;11.20
65290;BMP180;51893;59.754;10.110;2023-06-04T04:45:26;102326.00;;;11.20
65290;BMP180;51893;59.754;10.110;2023-06-04T04:47:56;102327.80;;;11.22
65290;BMP180;51893;59.754;10.110;2023-06-04T04:50:26;102322.80;;;11.30
65290;BMP180;51893;59.754;10.110;2023-06-04T04:52:54;102321.80;;;11.40
65290;BMP180;51893;59.754;10.110;2023-06-04T04:55:23;102324.00;;;11.50
65290;BMP180;51893;59.754;10.110;2023-06-04T04:57:53;102333.00;;;11.50
65290;BMP180;51893;59.754;10.110;2023-06-04T05:00:21;102337.60;;;11.60
65290;BMP180;51893;59.754;10.110;2023-06-04T05:02:56;102342.00;;;11.70
65290;BMP180;51893;59.754;10.110;2023-06-04T05:05:25;102338.80;;;11.78
65290;BMP180;51893;59.754;10.110;2023-06-04T05:07:52;102344.60;;;11.82
65290;BMP180;51893;59.754;10.110;2023-06-04T05:10:21;102346.40;;;11.90
65290;BMP180;51893;59.754;10.110;2023-06-04T05:12:52;102350.40;;;11.90
65290;BMP180;51893;59.754;10.110;2023-06-04T05:15:20;102348.00;;;12.00
65290;BMP180;51893;59.754;10.110;2023-06-04T05:17:51;102339.80;;;12.00
65290;BMP180;51893;59.754;10.110;2023-06-04T05:20:20;102348.80;;;12.10
65290;BMP180;51893;59.754;10.110;2023-06-04T05:22:53;102359.20;;;12.20
65290;BMP180;51893;59.754;10.110;2023-06-04T05:25:25;102357.60;;;12.30
65290;BMP180;51893;59.754;10.110;2023-06-04T05:27:56;102361.20;;;12.40
65290;BMP180;51893;59.754;10.110;2023-06-04T05:30:24;102365.00;;;12.50
65290;BMP180;51893;59.754;10.110;2023-06-04T05:32:52;102370.00;;;12.58
65290;BMP180;51893;59.754;10.110;2023-06-04T05:35:21;102367.80;;;12.62
65290;BMP180;51893;59.754;10.110;2023-06-04T05:37:50;102368.00;;;12.70
65290;BMP180;51893;59.754;10.110;2023-06-04T05:40:22;102370.80;;;12.80
65290;BMP180;51893;59.754;10.110;2023-06-04T05:42:51;102374.00;;;12.90
65290;BMP180;51893;59.754;10.110;2023-06-04T05:45:19;102377.80;;;13.00
65290;BMP180;51893;59.754;10.110;2023-06-04T05:47:47;102381.20;;;13.10
65290;BMP180;51893;59.754;10.110;2023-06-04T05:50:17;102377.20;;;13.10
65290;BMP180;51893;59.754;10.110;2023-06-04T05:52:45;102387.00;;;13.20
65290;BMP180;51893;59.754;10.110;2023-06-04T05:55:14;102386.00;;;13.30
65290;BMP180;51893;59.754;10.110;2023-06-04T05:57:44;102390.80;;;13.40
65290;BMP180;51893;59.754;10.110;2023-06-04T06:00:13;102392.00;;;13.44
65290;BMP180;51893;59.754;10.110;2023-06-04T06:02:43;102400.20;;;13.50
65290;BMP180;51893;59.754;10.110;2023-06-04T06:05:14;102403.60;;;13.60
65290;BMP180;51893;59.754;10.110;2023-06-04T06:07:44;102402.40;;;13.70
65290;BMP180;51893;59.754;10.110;2023-06-04T06:10:13;102406.00;;;13.88
65290;BMP180;51893;59.754;10.110;2023-06-04T06:12:42;102413.00;;;14.00
65290;BMP180;51893;59.754;10.110;2023-06-04T06:15:10;102419.00;;;14.10
65290;BMP180;51893;59.754;10.110;2023-06-04T06:17:38;102420.80;;;14.20
65290;BMP180;51893;59.754;10.110;2023-06-04T06:20:07;102428.40;;;14.30
65290;BMP180;51893;59.754;10.110;2023-06-04T06:22:35;102439.60;;;14.40
65290;BMP180;51893;59.754;10.110;2023-06-04T06:25:07;102448.20;;;14.50
65290;BMP180;51893;59.754;10.110;2023-06-04T06:27:41;102447.60;;;14.58
65290;BMP180;51893;59.754;10.110;2023-06-04T06:30:09;102446.60;;;14.60
65290;BMP180;51893;59.754;10.110;2023-06-04T06:32:38;102457.40;;;14.70
65290;BMP180;51893;59.754;10.110;2023-06-04T06:35:06;102461.40;;;14.80
65290;BMP180;51893;59.754;10.110;2023-06-04T06:37:36;102466.00;;;14.82
65290;BMP180;51893;59.754;10.110;2023-06-04T06:40:10;102468.40;;;14.98
65290;BMP180;51893;59.754;10.110;2023-06-04T06:42:40;102464.80;;;15.00
65290;BMP180;51893;59.754;10.110;2023-06-04T06:45:09;102464.00;;;15.10
65290;BMP180;51893;59.754;10.110;2023-06-04T06:47:39;102471.60;;;15.20
65290;BMP180;51893;59.754;10.110;2023-06-04T06:50:08;102473.40;;;15.22
65290;BMP180;51893;59.754;10.110;2023-06-04T06:52:38;102476.40;;;15.30
65290;BMP180;51893;59.754;10.110;2023-06-04T06:55:08;102476.60;;;15.40
65290;BMP180;51893;59.754;10.110;2023-06-04T06:57:36;102483.80;;;15.50
65290;BMP180;51893;59.754;10.110;2023-06-04T07:00:05;102483.60;;;15.56
65290;BMP180;51893;59.754;10.110;2023-06-04T07:02:36;102482.60;;;15.60
65290;BMP180;51893;59.754;10.110;2023-06-04T07:05:05;102488.40;;;15.70
65290;BMP180;51893;59.754;10.110;2023-06-04T07:07:33;102489.00;;;15.80
65290;BMP180;51893;59.754;10.110;2023-06-04T07:10:01;102486.20;;;15.90
65290;BMP180;51893;59.754;10.110;2023-06-04T07:12:31;102486.80;;;16.00
65290;BMP180;51893;59.754;10.110;2023-06-04T07:15:02;102489.60;;;16.00
65290;BMP180;51893;59.754;10.110;2023-06-04T07:17:33;102489.60;;;16.10
65290;BMP180;51893;59.754;10.110;2023-06-04T07:20:01;102491.20;;;16.10
65290;BMP180;51893;59.754;10.110;2023-06-04T07:22:29;102493.20;;;16.12
65290;BMP180;51893;59.754;10.110;2023-06-04T07:24:59;102493.20;;;16.20
65290;BMP180;51893;59.754;10.110;2023-06-04T07:27:27;102491.00;;;16.30
65290;BMP180;51893;59.754;10.110;2023-06-04T07:29:55;102487.00;;;16.32
65290;BMP180;51893;59.754;10.110;2023-06-04T07:32:23;102487.00;;;16.46
65290;BMP180;51893;59.754;10.110;2023-06-04T07:34:52;102488.20;;;16.50
65290;BMP180;51893;59.754;10.110;2023-06-04T07:37:19;102493.80;;;16.60
65290;BMP180;51893;59.754;10.110;2023-06-04T07:39:49;102494.80;;;16.72
65290;BMP180;51893;59.754;10.110;2023-06-04T07:42:17;102496.40;;;16.80
65290;BMP180;51893;59.754;10.110;2023-06-04T07:44:46;102497.40;;;16.84
65290;BMP180;51893;59.754;10.110;2023-06-04T07:47:16;102493.60;;;16.90
65290;BMP180;51893;59.754;10.110;2023-06-04T07:49:44;102495.60;;;16.98
65290;BMP180;51893;59.754;10.110;2023-06-04T07:52:29;102491.00;;;17.00
65290;BMP180;51893;59.754;10.110;2023-06-04T07:54:59;102492.20;;;17.02
65290;BMP180;51893;59.754;10.110;2023-06-04T07:57:29;102494.80;;;17.10
65290;BMP180;51893;59.754;10.110;2023-06-04T07:59:59;102497.60;;;17.10
65290;BMP180;51893;59.754;10.110;2023-06-04T08:02:31;102491.40;;;17.12
65290;BMP180;51893;59.754;10.110;2023-06-04T08:05:00;102489.40;;;17.20
65290;BMP180;51893;59.754;10.110;2023-06-04T08:07:30;102493.80;;;17.24
65290;BMP180;51893;59.754;10.110;2023-06-04T08:09:59;102497.00;;;17.30
65290;BMP180;51893;59.754;10.110;2023-06-04T08:12:27;102496.20;;;17.20
65290;BMP180;51893;59.754;10.110;2023-06-04T08:14:55;102491.60;;;17.30
65290;BMP180;51893;59.754;10.110;2023-06-04T08:17:25;102494.40;;;17.40
65290;BMP180;51893;59.754;10.110;2023-06-04T08:19:55;102488.80;;;17.50
65290;BMP180;51893;59.754;10.110;2023-06-04T08:22:23;102491.20;;;17.50
65290;BMP180;51893;59.754;10.110;2023-06-04T08:24:52;102492.40;;;17.40
65290;BMP180;51893;59.754;10.110;2023-06-04T08:27:20;102490.20;;;17.40
65290;BMP180;51893;59.754;10.110;2023-06-04T08:29:49;102484.20;;;17.50
65290;BMP180;51893;59.754;10.110;2023-06-04T08:32:23;102478.80;;;17.64
65290;BMP180;51893;59.754;10.110;2023-06-04T08:34:54;102473.80;;;17.80
65290;BMP180;51893;59.754;10.110;2023-06-04T08:37:24;102477.00;;;17.90
65290;BMP180;51893;59.754;10.110;2023-06-04T08:39:54;102478.80;;;17.90
65290;BMP180;51893;59.754;10.110;2023-06-04T08:42:29;102472.60;;;18.00
65290;BMP180;51893;59.754;10.110;2023-06-04T08:45:04;102471.60;;;18.00
65290;BMP180;51893;59.754;10.110;2023-06-04T08:47:35;102471.00;;;18.10
65290;BMP180;51893;59.754;10.110;2023-06-04T08:50:09;102470.00;;;18.30
65290;BMP180;51893;59.754;10.110;2023-06-04T08:52:44;102467.60;;;18.36
65290;BMP180;51893;59.754;10.110;2023-06-04T08:55:16;102466.80;;;18.50
65290;BMP180;51893;59.754;10.110;2023-06-04T08:57:45;102465.20;;;18.70
65290;BMP180;51893;59.754;10.110;2023-06-04T09:00:18;102466.60;;;18.80
65290;BMP180;51893;59.754;10.110;2023-06-04T09:02:49;102464.20;;;18.88
65290;BMP180;51893;59.754;10.110;2023-06-04T09:05:21;102464.60;;;18.90
65290;BMP180;51893;59.754;10.110;2023-06-04T09:07:53;102461.80;;;18.90
65290;BMP180;51893;59.754;10.110;2023-06-04T09:10:29;102460.60;;;19.00
65290;BMP180;51893;59.754;10.110;2023-06-04T09:13:02;102460.80;;;19.00
65290;BMP180;51893;59.754;10.110;2023-06-04T09:15:34;102463.80;;;19.10
65290;BMP180;51893;59.754;10.110;2023-06-04T09:18:02;102461.00;;;19.14
65290;BMP180;51893;59.754;10.110;2023-06-04T09:20:32;102448.80;;;19.22
65290;BMP180;51893;59.754;10.110;2023-06-04T09:23:15;102448.00;;;19.30
65290;BMP180;51893;59.754;10.110;2023-06-04T09:25:46;102447.60;;;19.50
65290;BMP180;51893;59.754;10.110;2023-06-04T09:28:29;102445.80;;;19.60
65290;BMP180;51893;59.754;10.110;2023-06-04T09:30:59;102451.60;;;19.64
65290;BMP180;51893;59.754;10.110;2023-06-04T09:33:30;102446.80;;;19.70
65290;BMP180;51893;59.754;10.110;2023-06-04T09:36:09;102440.80;;;19.80
65290;BMP180;51893;59.754;10.110;2023-06-04T09:38:40;102444.60;;;20.00
65290;BMP180;51893;59.754;10.110;2023-06-04T09:41:13;102443.00;;;20.06
65290;BMP180;51893;59.754;10.110;2023-06-04T09:43:43;102435.20;;;20.10
65290;BMP180;51893;59.754;10.110;2023-06-04T09:46:17;102433.20;;;20.20
65290;BMP180;51893;59.754;10.110;2023-06-04T09:48:59;102432.60;;;20.36
65290;BMP180;51893;59.754;10.110;2023-06-04T09:51:29;102431.40;;;20.52
65290;BMP180;51893;59.754;10.110;2023-06-04T09:54:03;102432.00;;;20.60
65290;BMP180;51893;59.754;10.110;2023-06-04T09:56:40;102432.60;;;20.50
65290;BMP180;51893;59.754;10.110;2023-06-04T09:59:09;102426.60;;;20.60
65290;BMP180;51893;59.754;10.110;2023-06-04T10:01:40;102432.40;;;20.60
65290;BMP180;51893;59.754;10.110;2023-06-04T10:04:13;102435.00;;;20.50
65290;BMP180;51893;59.754;10.110;2023-06-04T10:06:42;102426.80;;;20.50
65290;BMP180;51893;59.754;10.110;2023-06-04T10:09:13;102424.80;;;20.60
65290;BMP180;51893;59.754;10.110;2023-06-04T10:11:59;102415.60;;;20.80
65290;BMP180;51893;59.754;10.110;2023-06-04T10:14:41;102420.20;;;21.00
65290;BMP180;51893;59.754;10.110;2023-06-04T10:17:13;102416.60;;;21.10
65290;BMP180;51893;59.754;10.110;2023-06-04T10:19:44;102420.20;;;21.20
65290;BMP180;51893;59.754;10.110;2023-06-04T10:22:13;102420.80;;;21.28
65290;BMP180;51893;59.754;10.110;2023-06-04T10:24:44;102414.80;;;21.30
65290;BMP180;51893;59.754;10.110;2023-06-04T10:27:12;102420.00;;;21.50
65290;BMP180;51893;59.754;10.110;2023-06-04T10:29:45;102412.80;;;21.60
65290;BMP180;51893;59.754;10.110;2023-06-04T10:32:16;102419.00;;;21.70
65290;BMP180;51893;59.754;10.110;2023-06-04T10:34:44;102413.20;;;21.64
65290;BMP180;51893;59.754;10.110;2023-06-04T10:37:26;102408.40;;;21.80
65290;BMP180;51893;59.754;10.110;2023-06-04T10:39:59;102402.80;;;21.90
65290;BMP180;51893;59.754;10.110;2023-06-04T10:42:40;102399.40;;;22.00
65290;BMP180;51893;59.754;10.110;2023-06-04T10:45:30;102402.40;;;22.10
65290;BMP180;51893;59.754;10.110;2023-06-04T10:48:04;102396.40;;;22.30
65290;BMP180;51893;59.754;10.110;2023-06-04T10:50:35;102395.80;;;22.50
65290;BMP180;51893;59.754;10.110;2023-06-04T10:53:03;102399.80;;;22.40
65290;BMP180;51893;59.754;10.110;2023-06-04T10:55:47;102394.80;;;22.36
65290;BMP180;51893;59.754;10.110;2023-06-04T10:58:16;102392.00;;;22.50
65290;BMP180;51893;59.754;10.110;2023-06-04T11:00:47;102394.60;;;22.70
65290;BMP180;51893;59.754;10.110;2023-06-04T11:03:20;102392.20;;;22.90
65290;BMP180;51893;59.754;10.110;2023-06-04T11:05:52;102392.20;;;23.10
65290;BMP180;51893;59.754;10.110;2023-06-04T11:08:31;102396.40;;;23.14
65290;BMP180;51893;59.754;10.110;2023-06-04T11:11:11;102400.40;;;23.20
65290;BMP180;51893;59.754;10.110;2023-06-04T11:13:43;102393.20;;;23.30
65290;BMP180;51893;59.754;10.110;2023-06-04T11:16:20;102393.80;;;23.40
65290;BMP180;51893;59.754;10.110;2023-06-04T11:18:56;102391.40;;;23.40
65290;BMP180;51893;59.754;10.110;2023-06-04T11:21:27;102387.80;;;23.50
65290;BMP180;51893;59.754;10.110;2023-06-04T11:24:00;102384.20;;;23.70
65290;BMP180;51893;59.754;10.110;2023-06-04T11:26:37;102386.20;;;23.70
65290;BMP180;51893;59.754;10.110;2023-06-04T11:29:14;102381.20;;;23.90
65290;BMP180;51893;59.754;10.110;2023-06-04T11:31:47;102378.60;;;24.04
65290;BMP180;51893;59.754;10.110;2023-06-04T11:34:26;102381.20;;;24.18
65290;BMP180;51893;59.754;10.110;2023-06-04T11:36:56;102370.80;;;24.30
65290;BMP180;51893;59.754;10.110;2023-06-04T11:39:35;102371.40;;;24.40
65290;BMP180;51893;59.754;10.110;2023-06-04T11:42:10;102366.00;;;24.40
65290;BMP180;51893;59.754;10.110;2023-06-04T11:44:42;102369.20;;;24.48
65290;BMP180;51893;59.754;10.110;2023-06-04T11:47:15;102367.60;;;24.60
65290;BMP180;51893;59.754;10.110;2023-06-04T11:49:43;102361.40;;;24.70
65290;BMP180;51893;59.754;10.110;2023-06-04T11:52:19;102366.40;;;24.70
65290;BMP180;51893;59.754;10.110;2023-06-04T11:54:53;102366.60;;;24.36
65290;BMP180;51893;59.754;10.110;2023-06-04T11:57:24;102353.60;;;24.34
65290;BMP180;51893;59.754;10.110;2023-06-04T11:59:56;102362.40;;;24.52
65290;BMP180;51893;59.754;10.110;2023-06-04T12:02:31;102360.00;;;24.20
65290;BMP180;51893;59.754;10.110;2023-06-04T12:05:17;102360.80;;;24.20
65290;BMP180;51893;59.754;10.110;2023-06-04T12:07:49;102352.40;;;24.32
65290;BMP180;51893;59.754;10.110;2023-06-04T12:10:21;102352.80;;;24.60
65290;BMP180;51893;59.754;10.110;2023-06-04T12:12:56;102356.00;;;24.70
65290;BMP180;51893;59.754;10.110;2023-06-04T12:15:35;102360.20;;;24.74
65290;BMP180;51893;59.754;10.110;2023-06-04T12:18:08;102357.40;;;24.70
65290;BMP180;51893;59.754;10.110;2023-06-04T12:20:52;102353.20;;;24.80
65290;BMP180;51893;59.754;10.110;2023-06-04T12:23:29;102346.80;;;25.00
65290;BMP180;51893;59.754;10.110;2023-06-04T12:25:59;102344.40;;;25.00
65290;BMP180;51893;59.754;10.110;2023-06-04T12:28:34;102344.20;;;25.00
65290;BMP180;51893;59.754;10.110;2023-06-04T12:31:16;102341.40;;;25.10
65290;BMP180;51893;59.754;10.110;2023-06-04T12:33:46;102344.60;;;25.20
65290;BMP180;51893;59.754;10.110;2023-06-04T12:36:16;102342.20;;;25.34
65290;BMP180;51893;59.754;10.110;2023-06-04T12:38:44;102339.00;;;25.40
65290;BMP180;51893;59.754;10.110;2023-06-04T12:41:15;102338.80;;;25.50
65290;BMP180;51893;59.754;10.110;2023-06-04T12:43:45;102337.60;;;25.60
65290;BMP180;51893;59.754;10.110;2023-06-04T12:46:14;102336.20;;;25.70
65290;BMP180;51893;59.754;10.110;2023-06-04T12:48:42;102338.40;;;25.82
65290;BMP180;51893;59.754;10.110;2023-06-04T12:51:11;102338.40;;;25.90
65290;BMP180;51893;59.754;10.110;2023-06-04T12:53:43;102345.40;;;25.90
65290;BMP180;51893;59.754;10.110;2023-06-04T12:56:16;102343.20;;;25.92
65290;BMP180;51893;59.754;10.110;2023-06-04T12:58:44;102340.40;;;26.08
65290;BMP180;51893;59.754;10.110;2023-06-04T13:01:15;102336.00;;;26.20
65290;BMP180;51893;59.754;10.110;2023-06-04T13:03:43;102337.80;;;26.20
65290;BMP180;51893;59.754;10.110;2023-06-04T13:06:13;102339.80;;;26.30
65290;BMP180;51893;59.754;10.110;2023-06-04T13:08:41;102336.20;;;26.20
65290;BMP180;51893;59.754;10.110;2023-06-04T13:11:10;102339.60;;;26.26
65290;BMP180;51893;59.754;10.110;2023-06-04T13:13:38;102336.00;;;26.50
65290;BMP180;51893;59.754;10.110;2023-06-04T13:16:09;102334.20;;;26.40
65290;BMP180;51893;59.754;10.110;2023-06-04T13:18:39;102336.00;;;26.06
65290;BMP180;51893;59.754;10.110;2023-06-04T13:21:08;102328.80;;;26.00
65290;BMP180;51893;59.754;10.110;2023-06-04T13:23:36;102319.80;;;26.10
65290;BMP180;51893;59.754;10.110;2023-06-04T13:26:18;102319.60;;;26.20
65290;BMP180;51893;59.754;10.110;2023-06-04T13:28:48;102324.00;;;26.10
65290;BMP180;51893;59.754;10.110;2023-06-04T13:31:18;102320.80;;;26.10
65290;BMP180;51893;59.754;10.110;2023-06-04T13:33:46;102317.00;;;26.34
65290;BMP180;51893;59.754;10.110;2023-06-04T13:36:15;102313.80;;;26.70
65290;BMP180;51893;59.754;10.110;2023-06-04T13:38:43;102316.80;;;26.90
65290;BMP180;51893;59.754;10.110;2023-06-04T13:41:11;102313.60;;;27.10
65290;BMP180;51893;59.754;10.110;2023-06-04T13:43:44;102313.40;;;27.10
65290;BMP180;51893;59.754;10.110;2023-06-04T13:46:13;102315.60;;;27.10
65290;BMP180;51893;59.754;10.110;2023-06-04T13:48:41;102312.60;;;27.10
65290;BMP180;51893;59.754;10.110;2023-06-04T13:51:09;102310.80;;;27.20
65290;BMP180;51893;59.754;10.110;2023-06-04T13:53:37;102306.00;;;27.30
65290;BMP180;51893;59.754;10.110;2023-06-04T13:56:09;102306.00;;;27.42
65290;BMP180;51893;59.754;10.110;2023-06-04T13:58:38;102305.00;;;27.52
65290;BMP180;51893;59.754;10.110;2023-06-04T14:01:07;102305.20;;;27.68
65290;BMP180;51893;59.754;10.110;2023-06-04T14:03:37;102304.80;;;27.80
65290;BMP180;51893;59.754;10.110;2023-06-04T14:06:08;102305.00;;;27.80
65290;BMP180;51893;59.754;10.110;2023-06-04T14:08:40;102302.40;;;27.90
65290;BMP180;51893;59.754;10.110;2023-06-04T14:11:08;102300.00;;;27.90
65290;BMP180;51893;59.754;10.110;2023-06-04T14:13:38;102299.80;;;28.00